sensor_id;sensor_type;location;lat;lon;timestamp;P1;durP1;ratioP1;P2;durP2;ratioP2
4057;SDS011;2044;48.692;9.020;2022-08-16T00:00:28;5.23;;;4.70;;
4057;SDS011;2044;48.692;9.020;2022-08-16T00:02:58;5.87;;;4.47;;
4057;SDS011;2044;48.692;9.020;2022-08-16T00:05:26;6.77;;;4.53;;
4057;SDS011;2044;48.692;9.020;2022-08-16T00:07:54;5.07;;;4.20;;
4057;SDS011;2044;48.692;9.020;2022-08-16T00:10:23;4.90;;;4.30;;
4057;SDS011;2044;48.692;9.020;2022-08-16T00:12:52;5.60;;;4.07;;
4057;SDS011;2044;48.692;9.020;2022-08-16T00:15:20;5.60;;;4.90;;
4057;SDS011;2044;48.692;9.020;2022-08-16T00:17:50;5.17;;;4.67;;
4057;SDS011;2044;48.692;9.020;2022-08-16T00:20:17;7.07;;;4.80;;
4057;SDS011;2044;48.692;9.020;2022-08-16T00:22:45;6.33;;;4.30;;
4057;SDS011;2044;48.692;9.020;2022-08-16T00:25:13;5.80;;;4.47;;
4057;SDS011;2044;48.692;9.020;2022-08-16T00:27:41;6.00;;;5.10;;
4057;SDS011;2044;48.692;9.020;2022-08-16T00:30:11;6.20;;;4.50;;
4057;SDS011;2044;48.692;9.020;2022-08-16T00:32:40;5.47;;;4.40;;
4057;SDS011;2044;48.692;9.020;2022-08-16T00:35:11;5.13;;;4.60;;
4057;SDS011;2044;48.692;9.020;2022-08-16T00:37:40;5.30;;;4.40;;
4057;SDS011;2044;48.692;9.020;2022-08-16T00:40:08;4.60;;;4.20;;
4057;SDS011;2044;48.692;9.020;2022-08-16T00:42:36;6.10;;;4.70;;
4057;SDS011;2044;48.692;9.020;2022-08-16T00:45:04;6.37;;;4.70;;
4057;SDS011;2044;48.692;9.020;2022-08-16T00:47:40;6.30;;;4.60;;
4057;SDS011;2044;48.692;9.020;2022-08-16T00:50:11;5.03;;;4.53;;
4057;SDS011;2044;48.692;9.020;2022-08-16T00:52:39;6.33;;;4.60;;
4057;SDS011;2044;48.692;9.020;2022-08-16T00:55:07;5.60;;;4.70;;
4057;SDS011;2044;48.692;9.020;2022-08-16T00:57:34;6.50;;;5.00;;
4057;SDS011;2044;48.692;9.020;2022-08-16T01:00:03;6.00;;;4.93;;
4057;SDS011;2044;48.692;9.020;2022-08-16T01:02:31;6.40;;;5.17;;
4057;SDS011;2044;48.692;9.020;2022-08-16T01:05:00;4.70;;;4.27;;
4057;SDS011;2044;48.692;9.020;2022-08-16T01:07:27;7.33;;;4.67;;
4057;SDS011;2044;48.692;9.020;2022-08-16T01:09:54;5.40;;;4.40;;
4057;SDS011;2044;48.692;9.020;2022-08-16T01:12:20;6.40;;;4.80;;
4057;SDS011;2044;48.692;9.020;2022-08-16T01:14:49;7.50;;;4.60;;
4057;SDS011;2044;48.692;9.020;2022-08-16T01:17:19;5.23;;;4.63;;
4057;SDS011;2044;48.692;9.020;2022-08-16T01:19:47;5.00;;;4.03;;
4057;SDS011;2044;48.692;9.020;2022-08-16T01:22:25;7.73;;;5.00;;
4057;SDS011;2044;48.692;9.020;2022-08-16T01:24:58;6.57;;;4.97;;
4057;SDS011;2044;48.692;9.020;2022-08-16T01:27:28;6.30;;;4.43;;
4057;SDS011;2044;48.692;9.020;2022-08-16T01:29:58;5.03;;;4.50;;
4057;SDS011;2044;48.692;9.020;2022-08-16T01:32:29;5.57;;;4.20;;
4057;SDS011;2044;48.692;9.020;2022-08-16T01:35:00;6.57;;;4.80;;
4057;SDS011;2044;48.692;9.020;2022-08-16T01:37:36;5.40;;;4.50;;
4057;SDS011;2044;48.692;9.020;2022-08-16T01:40:06;5.00;;;4.50;;
4057;SDS011;2044;48.692;9.020;2022-08-16T01:42:33;6.50;;;4.57;;
4057;SDS011;2044;48.692;9.020;2022-08-16T01:45:00;6.00;;;5.20;;
4057;SDS011;2044;48.692;9.020;2022-08-16T01:47:27;6.10;;;5.00;;
4057;SDS011;2044;48.692;9.020;2022-08-16T01:49:54;5.97;;;5.03;;
4057;SDS011;2044;48.692;9.020;2022-08-16T01:52:21;5.63;;;4.43;;
4057;SDS011;2044;48.692;9.020;2022-08-16T01:54:48;5.43;;;4.77;;
4057;SDS011;2044;48.692;9.020;2022-08-16T01:57:16;6.37;;;4.67;;
4057;SDS011;2044;48.692;9.020;2022-08-16T01:59:43;6.90;;;4.97;;
4057;SDS011;2044;48.692;9.020;2022-08-16T02:02:09;5.00;;;4.20;;
4057;SDS011;2044;48.692;9.020;2022-08-16T02:04:36;6.03;;;4.30;;
4057;SDS011;2044;48.692;9.020;2022-08-16T02:07:03;4.70;;;4.23;;
4057;SDS011;2044;48.692;9.020;2022-08-16T02:09:33;5.53;;;4.40;;
4057;SDS011;2044;48.692;9.020;2022-08-16T02:12:03;6.70;;;4.97;;
4057;SDS011;2044;48.692;9.020;2022-08-16T02:14:34;5.77;;;4.37;;
4057;SDS011;2044;48.692;9.020;2022-08-16T02:17:02;5.97;;;4.37;;
4057;SDS011;2044;48.692;9.020;2022-08-16T02:19:32;6.77;;;4.90;;
4057;SDS011;2044;48.692;9.020;2022-08-16T02:22:02;6.73;;;5.00;;
4057;SDS011;2044;48.692;9.020;2022-08-16T02:24:31;6.30;;;5.03;;
4057;SDS011;2044;48.692;9.020;2022-08-16T02:26:58;5.97;;;4.63;;
4057;SDS011;2044;48.692;9.020;2022-08-16T02:29:25;7.50;;;4.50;;
4057;SDS011;2044;48.692;9.020;2022-08-16T02:31:53;7.73;;;4.90;;
4057;SDS011;2044;48.692;9.020;2022-08-16T02:34:20;6.50;;;4.97;;
4057;SDS011;2044;48.692;9.020;2022-08-16T02:36:46;11.30;;;5.80;;
4057;SDS011;2044;48.692;9.020;2022-08-16T02:39:14;6.50;;;4.80;;
4057;SDS011;2044;48.692;9.020;2022-08-16T02:41:44;5.20;;;4.67;;
4057;SDS011;2044;48.692;9.020;2022-08-16T02:44:12;6.10;;;4.57;;
4057;SDS011;2044;48.692;9.020;2022-08-16T02:46:39;6.00;;;4.80;;
4057;SDS011;2044;48.692;9.020;2022-08-16T02:49:08;8.77;;;5.43;;
4057;SDS011;2044;48.692;9.020;2022-08-16T02:51:37;6.60;;;4.80;;
4057;SDS011;2044;48.692;9.020;2022-08-16T02:54:05;5.77;;;4.90;;
4057;SDS011;2044;48.692;9.020;2022-08-16T02:56:32;5.03;;;4.37;;
4057;SDS011;2044;48.692;9.020;2022-08-16T02:58:59;8.70;;;5.23;;
4057;SDS011;2044;48.692;9.020;2022-08-16T03:01:28;5.90;;;4.90;;
4057;SDS011;2044;48.692;9.020;2022-08-16T03:03:56;6.03;;;4.30;;
4057;SDS011;2044;48.692;9.020;2022-08-16T03:06:26;5.30;;;4.60;;
4057;SDS011;2044;48.692;9.020;2022-08-16T03:08:53;6.03;;;4.93;;
4057;SDS011;2044;48.692;9.020;2022-08-16T03:11:20;5.90;;;4.57;;
4057;SDS011;2044;48.692;9.020;2022-08-16T03:13:48;6.40;;;5.23;;
4057;SDS011;2044;48.692;9.020;2022-08-16T03:16:17;5.83;;;4.73;;
4057;SDS011;2044;48.692;9.020;2022-08-16T03:18:44;7.07;;;5.40;;
4057;SDS011;2044;48.692;9.020;2022-08-16T03:21:11;7.10;;;4.87;;
4057;SDS011;2044;48.692;9.020;2022-08-16T03:23:39;6.87;;;5.10;;
4057;SDS011;2044;48.692;9.020;2022-08-16T03:26:07;6.20;;;4.60;;
4057;SDS011;2044;48.692;9.020;2022-08-16T03:28:34;7.10;;;6.00;;
4057;SDS011;2044;48.692;9.020;2022-08-16T03:31:01;6.07;;;5.23;;
4057;SDS011;2044;48.692;9.020;2022-08-16T03:33:28;7.07;;;5.00;;
4057;SDS011;2044;48.692;9.020;2022-08-16T03:35:55;7.50;;;5.63;;
4057;SDS011;2044;48.692;9.020;2022-08-16T03:38:24;8.83;;;5.03;;
4057;SDS011;2044;48.692;9.020;2022-08-16T03:40:53;7.73;;;5.20;;
4057;SDS011;2044;48.692;9.020;2022-08-16T03:43:21;7.17;;;6.10;;
4057;SDS011;2044;48.692;9.020;2022-08-16T03:45:49;6.00;;;5.10;;
4057;SDS011;2044;48.692;9.020;2022-08-16T03:48:17;6.40;;;5.50;;
4057;SDS011;2044;48.692;9.020;2022-08-16T03:50:44;8.43;;;5.50;;
4057;SDS011;2044;48.692;9.020;2022-08-16T03:53:11;8.53;;;6.13;;
4057;SDS011;2044;48.692;9.020;2022-08-16T03:55:38;6.33;;;5.40;;
4057;SDS011;2044;48.692;9.020;2022-08-16T03:58:06;9.17;;;5.57;;
4057;SDS011;2044;48.692;9.020;2022-08-16T04:00:33;7.93;;;5.67;;
4057;SDS011;2044;48.692;9.020;2022-08-16T04:03:01;6.33;;;5.40;;
4057;SDS011;2044;48.692;9.020;2022-08-16T04:05:31;7.47;;;5.10;;
4057;SDS011;2044;48.692;9.020;2022-08-16T04:07:58;6.27;;;5.37;;
4057;SDS011;2044;48.692;9.020;2022-08-16T04:10:25;7.53;;;5.37;;
4057;SDS011;2044;48.692;9.020;2022-08-16T04:12:52;9.43;;;5.60;;
4057;SDS011;2044;48.692;9.020;2022-08-16T04:15:20;6.87;;;5.30;;
4057;SDS011;2044;48.692;9.020;2022-08-16T04:17:47;7.40;;;5.70;;
4057;SDS011;2044;48.692;9.020;2022-08-16T04:20:13;5.57;;;4.97;;
4057;SDS011;2044;48.692;9.020;2022-08-16T04:22:41;8.50;;;5.57;;
4057;SDS011;2044;48.692;9.020;2022-08-16T04:25:08;6.20;;;5.10;;
4057;SDS011;2044;48.692;9.020;2022-08-16T04:27:36;8.27;;;5.40;;
4057;SDS011;2044;48.692;9.020;2022-08-16T04:30:06;8.43;;;5.77;;
4057;SDS011;2044;48.692;9.020;2022-08-16T04:32:36;6.13;;;5.53;;
4057;SDS011;2044;48.692;9.020;2022-08-16T04:35:04;6.27;;;4.83;;
4057;SDS011;2044;48.692;9.020;2022-08-16T04:37:33;5.73;;;5.13;;
4057;SDS011;2044;48.692;9.020;2022-08-16T04:39:59;7.23;;;5.00;;
4057;SDS011;2044;48.692;9.020;2022-08-16T04:42:26;6.67;;;5.40;;
4057;SDS011;2044;48.692;9.020;2022-08-16T04:44:53;5.90;;;5.30;;
4057;SDS011;2044;48.692;9.020;2022-08-16T04:47:22;7.57;;;5.00;;
4057;SDS011;2044;48.692;9.020;2022-08-16T04:49:52;7.53;;;5.13;;
4057;SDS011;2044;48.692;9.020;2022-08-16T04:52:18;4.87;;;4.47;;
4057;SDS011;2044;48.692;9.020;2022-08-16T04:54:46;5.73;;;4.67;;
4057;SDS011;2044;48.692;9.020;2022-08-16T04:57:12;6.37;;;5.27;;
4057;SDS011;2044;48.692;9.020;2022-08-16T04:59:39;6.97;;;5.03;;
4057;SDS011;2044;48.692;9.020;2022-08-16T05:02:06;6.87;;;5.10;;
4057;SDS011;2044;48.692;9.020;2022-08-16T05:04:33;5.57;;;4.90;;
4057;SDS011;2044;48.692;9.020;2022-08-16T05:07:02;6.17;;;5.10;;
4057;SDS011;2044;48.692;9.020;2022-08-16T05:09:30;6.47;;;5.13;;
4057;SDS011;2044;48.692;9.020;2022-08-16T05:11:56;6.20;;;4.77;;
4057;SDS011;2044;48.692;9.020;2022-08-16T05:14:23;6.23;;;5.00;;
4057;SDS011;2044;48.692;9.020;2022-08-16T05:16:50;5.83;;;5.03;;
4057;SDS011;2044;48.692;9.020;2022-08-16T05:19:16;7.67;;;5.27;;
4057;SDS011;2044;48.692;9.020;2022-08-16T05:21:43;6.00;;;5.10;;
4057;SDS011;2044;48.692;9.020;2022-08-16T05:24:11;5.30;;;4.73;;
4057;SDS011;2044;48.692;9.020;2022-08-16T05:26:38;6.43;;;5.03;;
4057;SDS011;2044;48.692;9.020;2022-08-16T05:29:05;10.70;;;4.90;;
4057;SDS011;2044;48.692;9.020;2022-08-16T05:31:31;7.33;;;4.80;;
4057;SDS011;2044;48.692;9.020;2022-08-16T05:33:59;5.53;;;4.63;;
4057;SDS011;2044;48.692;9.020;2022-08-16T05:36:27;5.37;;;4.87;;
4057;SDS011;2044;48.692;9.020;2022-08-16T05:38:55;5.90;;;5.10;;
4057;SDS011;2044;48.692;9.020;2022-08-16T05:41:23;6.50;;;5.10;;
4057;SDS011;2044;48.692;9.020;2022-08-16T05:43:49;6.00;;;5.40;;
4057;SDS011;2044;48.692;9.020;2022-08-16T05:46:16;5.57;;;4.63;;
4057;SDS011;2044;48.692;9.020;2022-08-16T05:48:43;5.30;;;4.80;;
4057;SDS011;2044;48.692;9.020;2022-08-16T05:51:10;7.07;;;5.87;;
4057;SDS011;2044;48.692;9.020;2022-08-16T05:53:37;5.47;;;4.53;;
4057;SDS011;2044;48.692;9.020;2022-08-16T05:56:04;6.87;;;6.00;;
4057;SDS011;2044;48.692;9.020;2022-08-16T05:58:32;5.37;;;4.33;;
4057;SDS011;2044;48.692;9.020;2022-08-16T06:00:59;5.50;;;5.00;;
4057;SDS011;2044;48.692;9.020;2022-08-16T06:03:26;5.77;;;4.77;;
4057;SDS011;2044;48.692;9.020;2022-08-16T06:05:52;8.20;;;5.63;;
4057;SDS011;2044;48.692;9.020;2022-08-16T06:08:19;7.10;;;5.00;;
4057;SDS011;2044;48.692;9.020;2022-08-16T06:10:46;5.77;;;4.63;;
4057;SDS011;2044;48.692;9.020;2022-08-16T06:13:13;6.13;;;4.60;;
4057;SDS011;2044;48.692;9.020;2022-08-16T06:15:41;5.40;;;4.77;;
4057;SDS011;2044;48.692;9.020;2022-08-16T06:18:08;4.87;;;4.47;;
4057;SDS011;2044;48.692;9.020;2022-08-16T06:20:35;5.30;;;4.80;;
4057;SDS011;2044;48.692;9.020;2022-08-16T06:23:02;5.50;;;4.77;;
4057;SDS011;2044;48.692;9.020;2022-08-16T06:25:30;6.10;;;5.00;;
4057;SDS011;2044;48.692;9.020;2022-08-16T06:27:58;4.63;;;4.33;;
4057;SDS011;2044;48.692;9.020;2022-08-16T06:30:24;5.97;;;5.47;;
4057;SDS011;2044;48.692;9.020;2022-08-16T06:32:53;6.20;;;5.60;;
4057;SDS011;2044;48.692;9.020;2022-08-16T06:35:19;5.83;;;5.33;;
4057;SDS011;2044;48.692;9.020;2022-08-16T06:37:46;5.90;;;5.50;;
4057;SDS011;2044;48.692;9.020;2022-08-16T06:40:13;7.90;;;6.47;;
4057;SDS011;2044;48.692;9.020;2022-08-16T06:42:39;7.10;;;6.50;;
4057;SDS011;2044;48.692;9.020;2022-08-16T06:45:06;8.27;;;7.00;;
4057;SDS011;2044;48.692;9.020;2022-08-16T06:47:33;7.63;;;6.40;;
4057;SDS011;2044;48.692;9.020;2022-08-16T06:50:02;7.93;;;7.23;;
4057;SDS011;2044;48.692;9.020;2022-08-16T06:52:29;7.30;;;6.80;;
4057;SDS011;2044;48.692;9.020;2022-08-16T06:54:57;7.97;;;7.27;;
4057;SDS011;2044;48.692;9.020;2022-08-16T06:57:26;7.57;;;7.07;;
4057;SDS011;2044;48.692;9.020;2022-08-16T06:59:53;9.30;;;8.70;;
4057;SDS011;2044;48.692;9.020;2022-08-16T07:02:19;9.40;;;8.80;;
4057;SDS011;2044;48.692;9.020;2022-08-16T07:04:49;8.60;;;7.97;;
4057;SDS011;2044;48.692;9.020;2022-08-16T07:07:18;9.30;;;8.70;;
4057;SDS011;2044;48.692;9.020;2022-08-16T07:09:45;9.00;;;8.40;;
4057;SDS011;2044;48.692;9.020;2022-08-16T07:12:12;10.20;;;9.33;;
4057;SDS011;2044;48.692;9.020;2022-08-16T07:14:39;10.23;;;9.43;;
4057;SDS011;2044;48.692;9.020;2022-08-16T07:17:06;10.40;;;9.70;;
4057;SDS011;2044;48.692;9.020;2022-08-16T07:19:33;10.77;;;10.17;;
4057;SDS011;2044;48.692;9.020;2022-08-16T07:22:00;11.03;;;10.23;;
4057;SDS011;2044;48.692;9.020;2022-08-16T07:24:29;11.00;;;10.40;;
4057;SDS011;2044;48.692;9.020;2022-08-16T07:26:56;11.90;;;11.20;;
4057;SDS011;2044;48.692;9.020;2022-08-16T07:29:23;12.20;;;11.50;;
4057;SDS011;2044;48.692;9.020;2022-08-16T07:31:51;12.73;;;11.93;;
4057;SDS011;2044;48.692;9.020;2022-08-16T07:34:18;13.07;;;11.90;;
4057;SDS011;2044;48.692;9.020;2022-08-16T07:36:44;13.00;;;12.00;;
4057;SDS011;2044;48.692;9.020;2022-08-16T07:39:11;12.73;;;12.03;;
4057;SDS011;2044;48.692;9.020;2022-08-16T07:41:40;12.60;;;11.80;;
4057;SDS011;2044;48.692;9.020;2022-08-16T07:44:08;12.67;;;11.77;;
4057;SDS011;2044;48.692;9.020;2022-08-16T07:46:35;12.83;;;12.10;;
4057;SDS011;2044;48.692;9.020;2022-08-16T07:49:02;12.73;;;11.93;;
4057;SDS011;2044;48.692;9.020;2022-08-16T07:51:29;14.00;;;13.10;;
4057;SDS011;2044;48.692;9.020;2022-08-16T07:53:58;14.20;;;13.13;;
4057;SDS011;2044;48.692;9.020;2022-08-16T07:56:26;13.17;;;12.37;;
4057;SDS011;2044;48.692;9.020;2022-08-16T07:58:54;12.90;;;12.17;;
4057;SDS011;2044;48.692;9.020;2022-08-16T08:01:21;13.03;;;12.23;;
4057;SDS011;2044;48.692;9.020;2022-08-16T08:03:49;13.63;;;12.80;;
4057;SDS011;2044;48.692;9.020;2022-08-16T08:06:16;13.20;;;12.50;;
4057;SDS011;2044;48.692;9.020;2022-08-16T08:08:44;13.70;;;12.57;;
4057;SDS011;2044;48.692;9.020;2022-08-16T08:11:11;13.83;;;12.97;;
4057;SDS011;2044;48.692;9.020;2022-08-16T08:13:38;13.60;;;12.80;;
4057;SDS011;2044;48.692;9.020;2022-08-16T08:16:06;13.40;;;12.60;;
4057;SDS011;2044;48.692;9.020;2022-08-16T08:18:34;13.20;;;12.40;;
4057;SDS011;2044;48.692;9.020;2022-08-16T08:21:00;12.70;;;12.00;;
4057;SDS011;2044;48.692;9.020;2022-08-16T08:23:27;13.37;;;12.50;;
4057;SDS011;2044;48.692;9.020;2022-08-16T08:25:54;13.47;;;12.57;;
4057;SDS011;2044;48.692;9.020;2022-08-16T08:28:20;14.10;;;13.20;;
4057;SDS011;2044;48.692;9.020;2022-08-16T08:30:47;14.53;;;13.53;;
4057;SDS011;2044;48.692;9.020;2022-08-16T08:33:15;13.43;;;12.47;;
4057;SDS011;2044;48.692;9.020;2022-08-16T08:35:42;13.30;;;12.30;;
4057;SDS011;2044;48.692;9.020;2022-08-16T08:38:10;12.53;;;11.67;;
4057;SDS011;2044;48.692;9.020;2022-08-16T08:40:37;13.70;;;12.60;;
4057;SDS011;2044;48.692;9.020;2022-08-16T08:43:13;12.40;;;11.60;;
4057;SDS011;2044;48.692;9.020;2022-08-16T08:45:42;11.90;;;11.00;;
4057;SDS011;2044;48.692;9.020;2022-08-16T08:48:08;12.80;;;12.00;;
4057;SDS011;2044;48.692;9.020;2022-08-16T08:50:36;12.50;;;11.60;;
4057;SDS011;2044;48.692;9.020;2022-08-16T08:53:04;12.00;;;11.00;;
4057;SDS011;2044;48.692;9.020;2022-08-16T08:55:31;13.40;;;12.17;;
4057;SDS011;2044;48.692;9.020;2022-08-16T08:57:58;12.13;;;11.30;;
4057;SDS011;2044;48.692;9.020;2022-08-16T09:00:25;12.47;;;11.57;;
4057;SDS011;2044;48.692;9.020;2022-08-16T09:02:53;13.93;;;12.77;;
4057;SDS011;2044;48.692;9.020;2022-08-16T09:05:24;13.60;;;12.67;;
4057;SDS011;2044;48.692;9.020;2022-08-16T09:07:53;13.40;;;12.20;;
4057;SDS011;2044;48.692;9.020;2022-08-16T09:10:21;13.47;;;12.57;;
4057;SDS011;2044;48.692;9.020;2022-08-16T09:12:48;13.30;;;12.20;;
4057;SDS011;2044;48.692;9.020;2022-08-16T09:15:15;13.47;;;12.20;;
4057;SDS011;2044;48.692;9.020;2022-08-16T09:17:42;13.27;;;12.27;;
4057;SDS011;2044;48.692;9.020;2022-08-16T09:20:10;13.47;;;12.43;;
4057;SDS011;2044;48.692;9.020;2022-08-16T09:22:40;13.60;;;12.70;;
4057;SDS011;2044;48.692;9.020;2022-08-16T09:28:06;13.33;;;12.43;;
4057;SDS011;2044;48.692;9.020;2022-08-16T09:30:33;13.53;;;12.57;;
4057;SDS011;2044;48.692;9.020;2022-08-16T09:33:00;13.43;;;12.30;;
4057;SDS011;2044;48.692;9.020;2022-08-16T09:35:27;12.27;;;11.47;;
4057;SDS011;2044;48.692;9.020;2022-08-16T09:37:54;12.73;;;11.93;;
4057;SDS011;2044;48.692;9.020;2022-08-16T09:40:21;14.00;;;13.10;;
4057;SDS011;2044;48.692;9.020;2022-08-16T09:42:48;13.03;;;12.07;;
4057;SDS011;2044;48.692;9.020;2022-08-16T09:45:19;13.30;;;12.50;;
4057;SDS011;2044;48.692;9.020;2022-08-16T09:47:45;13.30;;;12.50;;
4057;SDS011;2044;48.692;9.020;2022-08-16T09:50:18;13.30;;;12.50;;
4057;SDS011;2044;48.692;9.020;2022-08-16T09:52:45;13.90;;;12.90;;
4057;SDS011;2044;48.692;9.020;2022-08-16T09:55:12;13.60;;;12.80;;
4057;SDS011;2044;48.692;9.020;2022-08-16T09:57:39;14.03;;;13.03;;
4057;SDS011;2044;48.692;9.020;2022-08-16T10:00:07;13.13;;;12.20;;
4057;SDS011;2044;48.692;9.020;2022-08-16T10:02:37;12.90;;;12.10;;
4057;SDS011;2044;48.692;9.020;2022-08-16T10:05:06;13.20;;;12.40;;
4057;SDS011;2044;48.692;9.020;2022-08-16T10:07:35;13.17;;;12.27;;
4057;SDS011;2044;48.692;9.020;2022-08-16T10:10:02;12.60;;;11.90;;
4057;SDS011;2044;48.692;9.020;2022-08-16T10:12:30;13.63;;;12.40;;
4057;SDS011;2044;48.692;9.020;2022-08-16T10:15:15;11.37;;;10.83;;
4057;SDS011;2044;48.692;9.020;2022-08-16T10:17:46;12.30;;;11.60;;
4057;SDS011;2044;48.692;9.020;2022-08-16T10:20:15;13.03;;;12.27;;
4057;SDS011;2044;48.692;9.020;2022-08-16T10:22:42;12.63;;;11.90;;
4057;SDS011;2044;48.692;9.020;2022-08-16T10:25:08;12.27;;;11.47;;
4057;SDS011;2044;48.692;9.020;2022-08-16T10:27:35;12.37;;;11.67;;
4057;SDS011;2044;48.692;9.020;2022-08-16T10:30:02;13.37;;;12.37;;
4057;SDS011;2044;48.692;9.020;2022-08-16T10:32:30;12.07;;;11.40;;
4057;SDS011;2044;48.692;9.020;2022-08-16T10:34:58;11.93;;;11.23;;
4057;SDS011;2044;48.692;9.020;2022-08-16T10:37:27;12.73;;;11.93;;
4057;SDS011;2044;48.692;9.020;2022-08-16T10:39:54;11.50;;;10.83;;
4057;SDS011;2044;48.692;9.020;2022-08-16T10:42:20;12.63;;;11.83;;
4057;SDS011;2044;48.692;9.020;2022-08-16T10:44:47;12.10;;;11.20;;
4057;SDS011;2044;48.692;9.020;2022-08-16T10:47:14;11.50;;;10.80;;
4057;SDS011;2044;48.692;9.020;2022-08-16T10:49:41;11.73;;;11.03;;
4057;SDS011;2044;48.692;9.020;2022-08-16T10:52:09;13.43;;;12.20;;
4057;SDS011;2044;48.692;9.020;2022-08-16T10:54:36;12.73;;;11.57;;
4057;SDS011;2044;48.692;9.020;2022-08-16T10:57:03;12.73;;;11.93;;
4057;SDS011;2044;48.692;9.020;2022-08-16T10:59:31;11.90;;;11.20;;
4057;SDS011;2044;48.692;9.020;2022-08-16T11:01:59;12.40;;;11.67;;
4057;SDS011;2044;48.692;9.020;2022-08-16T11:04:26;12.00;;;11.33;;
4057;SDS011;2044;48.692;9.020;2022-08-16T11:06:53;12.53;;;11.73;;
4057;SDS011;2044;48.692;9.020;2022-08-16T11:09:21;12.07;;;11.47;;
4057;SDS011;2044;48.692;9.020;2022-08-16T11:11:47;11.87;;;10.87;;
4057;SDS011;2044;48.692;9.020;2022-08-16T11:14:14;11.90;;;11.00;;
4057;SDS011;2044;48.692;9.020;2022-08-16T11:16:42;11.30;;;10.70;;
4057;SDS011;2044;48.692;9.020;2022-08-16T11:19:09;12.63;;;11.83;;
4057;SDS011;2044;48.692;9.020;2022-08-16T11:21:36;12.40;;;11.50;;
4057;SDS011;2044;48.692;9.020;2022-08-16T11:24:03;12.30;;;11.40;;
4057;SDS011;2044;48.692;9.020;2022-08-16T11:26:32;12.57;;;11.77;;
4057;SDS011;2044;48.692;9.020;2022-08-16T11:28:58;12.47;;;11.67;;
4057;SDS011;2044;48.692;9.020;2022-08-16T11:31:25;12.37;;;11.33;;
4057;SDS011;2044;48.692;9.020;2022-08-16T11:33:53;11.80;;;11.10;;
4057;SDS011;2044;48.692;9.020;2022-08-16T11:36:19;11.47;;;10.87;;
4057;SDS011;2044;48.692;9.020;2022-08-16T11:38:46;11.83;;;11.00;;
4057;SDS011;2044;48.692;9.020;2022-08-16T11:41:13;11.90;;;11.20;;
4057;SDS011;2044;48.692;9.020;2022-08-16T11:43:41;12.30;;;11.60;;
4057;SDS011;2044;48.692;9.020;2022-08-16T11:46:09;11.40;;;10.80;;
4057;SDS011;2044;48.692;9.020;2022-08-16T11:48:37;11.30;;;10.60;;
4057;SDS011;2044;48.692;9.020;2022-08-16T11:51:04;11.23;;;10.53;;
4057;SDS011;2044;48.692;9.020;2022-08-16T11:53:32;12.20;;;11.30;;
4057;SDS011;2044;48.692;9.020;2022-08-16T11:55:59;10.90;;;10.30;;
4057;SDS011;2044;48.692;9.020;2022-08-16T11:58:27;11.60;;;10.90;;
4057;SDS011;2044;48.692;9.020;2022-08-16T12:00:57;12.37;;;11.57;;
4057;SDS011;2044;48.692;9.020;2022-08-16T12:03:24;11.70;;;10.87;;
4057;SDS011;2044;48.692;9.020;2022-08-16T12:05:52;12.17;;;11.27;;
4057;SDS011;2044;48.692;9.020;2022-08-16T12:08:20;11.60;;;11.00;;
4057;SDS011;2044;48.692;9.020;2022-08-16T12:10:47;11.50;;;10.87;;
4057;SDS011;2044;48.692;9.020;2022-08-16T12:13:14;12.20;;;11.10;;
4057;SDS011;2044;48.692;9.020;2022-08-16T12:15:41;11.20;;;10.60;;
4057;SDS011;2044;48.692;9.020;2022-08-16T12:18:09;12.20;;;11.30;;
4057;SDS011;2044;48.692;9.020;2022-08-16T12:20:37;11.10;;;10.50;;
4057;SDS011;2044;48.692;9.020;2022-08-16T12:23:06;11.17;;;10.57;;
4057;SDS011;2044;48.692;9.020;2022-08-16T12:25:33;10.73;;;10.13;;
4057;SDS011;2044;48.692;9.020;2022-08-16T12:28:01;10.40;;;9.90;;
4057;SDS011;2044;48.692;9.020;2022-08-16T12:30:30;11.47;;;10.80;;
4057;SDS011;2044;48.692;9.020;2022-08-16T12:32:58;11.80;;;11.17;;
4057;SDS011;2044;48.692;9.020;2022-08-16T12:35:28;11.40;;;10.50;;
4057;SDS011;2044;48.692;9.020;2022-08-16T12:37:57;11.23;;;10.63;;
4057;SDS011;2044;48.692;9.020;2022-08-16T12:40:26;11.40;;;10.70;;
4057;SDS011;2044;48.692;9.020;2022-08-16T12:42:56;10.90;;;10.30;;
4057;SDS011;2044;48.692;9.020;2022-08-16T12:45:26;11.63;;;10.97;;
4057;SDS011;2044;48.692;9.020;2022-08-16T12:47:54;12.30;;;11.50;;
4057;SDS011;2044;48.692;9.020;2022-08-16T12:50:40;12.10;;;11.30;;
4057;SDS011;2044;48.692;9.020;2022-08-16T12:53:07;12.47;;;11.70;;
4057;SDS011;2044;48.692;9.020;2022-08-16T12:55:36;12.87;;;12.10;;
4057;SDS011;2044;48.692;9.020;2022-08-16T12:58:03;12.70;;;11.90;;
4057;SDS011;2044;48.692;9.020;2022-08-16T13:00:30;12.03;;;11.37;;
4057;SDS011;2044;48.692;9.020;2022-08-16T13:02:58;11.83;;;10.93;;
4057;SDS011;2044;48.692;9.020;2022-08-16T13:05:26;12.27;;;11.47;;
4057;SDS011;2044;48.692;9.020;2022-08-16T13:07:56;11.77;;;10.90;;
4057;SDS011;2044;48.692;9.020;2022-08-16T13:10:24;12.50;;;11.70;;
4057;SDS011;2044;48.692;9.020;2022-08-16T13:12:53;11.30;;;10.50;;
4057;SDS011;2044;48.692;9.020;2022-08-16T13:15:21;11.17;;;10.57;;
4057;SDS011;2044;48.692;9.020;2022-08-16T13:17:52;12.70;;;11.70;;
4057;SDS011;2044;48.692;9.020;2022-08-16T13:20:20;11.37;;;10.70;;
4057;SDS011;2044;48.692;9.020;2022-08-16T13:22:50;11.33;;;10.63;;
4057;SDS011;2044;48.692;9.020;2022-08-16T13:25:24;11.27;;;10.67;;
4057;SDS011;2044;48.692;9.020;2022-08-16T13:27:52;10.93;;;10.20;;
4057;SDS011;2044;48.692;9.020;2022-08-16T13:30:21;11.00;;;10.40;;
4057;SDS011;2044;48.692;9.020;2022-08-16T13:32:49;10.97;;;10.20;;
4057;SDS011;2044;48.692;9.020;2022-08-16T13:35:17;10.57;;;10.00;;
4057;SDS011;2044;48.692;9.020;2022-08-16T13:37:43;11.00;;;10.20;;
4057;SDS011;2044;48.692;9.020;2022-08-16T13:40:10;10.43;;;9.63;;
4057;SDS011;2044;48.692;9.020;2022-08-16T13:42:39;10.70;;;10.00;;
4057;SDS011;2044;48.692;9.020;2022-08-16T13:45:06;10.90;;;10.40;;
4057;SDS011;2044;48.692;9.020;2022-08-16T13:47:34;10.77;;;10.17;;
4057;SDS011;2044;48.692;9.020;2022-08-16T13:50:00;10.53;;;10.00;;
4057;SDS011;2044;48.692;9.020;2022-08-16T13:52:29;10.97;;;10.37;;
4057;SDS011;2044;48.692;9.020;2022-08-16T13:54:56;11.00;;;10.40;;
4057;SDS011;2044;48.692;9.020;2022-08-16T13:57:22;10.80;;;10.10;;
4057;SDS011;2044;48.692;9.020;2022-08-16T13:59:50;10.70;;;10.10;;
4057;SDS011;2044;48.692;9.020;2022-08-16T14:02:17;10.40;;;9.90;;
4057;SDS011;2044;48.692;9.020;2022-08-16T14:04:44;9.87;;;9.37;;
4057;SDS011;2044;48.692;9.020;2022-08-16T14:07:12;9.73;;;9.10;;
4057;SDS011;2044;48.692;9.020;2022-08-16T14:09:41;10.40;;;9.83;;
4057;SDS011;2044;48.692;9.020;2022-08-16T14:12:12;10.50;;;9.80;;
4057;SDS011;2044;48.692;9.020;2022-08-16T14:14:44;10.83;;;10.00;;
4057;SDS011;2044;48.692;9.020;2022-08-16T14:17:12;9.93;;;9.40;;
4057;SDS011;2044;48.692;9.020;2022-08-16T14:19:39;9.80;;;9.30;;
4057;SDS011;2044;48.692;9.020;2022-08-16T14:22:06;10.13;;;9.53;;
4057;SDS011;2044;48.692;9.020;2022-08-16T14:24:34;10.43;;;9.83;;
4057;SDS011;2044;48.692;9.020;2022-08-16T14:27:02;10.20;;;9.60;;
4057;SDS011;2044;48.692;9.020;2022-08-16T14:29:29;9.83;;;9.23;;
4057;SDS011;2044;48.692;9.020;2022-08-16T14:31:56;10.43;;;9.83;;
4057;SDS011;2044;48.692;9.020;2022-08-16T14:34:25;9.93;;;9.33;;
4057;SDS011;2044;48.692;9.020;2022-08-16T14:36:52;10.00;;;9.40;;
4057;SDS011;2044;48.692;9.020;2022-08-16T14:39:18;10.10;;;9.50;;
4057;SDS011;2044;48.692;9.020;2022-08-16T14:41:46;10.27;;;9.73;;
4057;SDS011;2044;48.692;9.020;2022-08-16T14:44:13;10.60;;;9.90;;
4057;SDS011;2044;48.692;9.020;2022-08-16T14:46:40;10.00;;;9.50;;
4057;SDS011;2044;48.692;9.020;2022-08-16T14:49:07;10.10;;;9.50;;
4057;SDS011;2044;48.692;9.020;2022-08-16T14:51:35;10.33;;;9.83;;
4057;SDS011;2044;48.692;9.020;2022-08-16T14:54:02;9.53;;;9.13;;
4057;SDS011;2044;48.692;9.020;2022-08-16T14:56:29;10.07;;;9.40;;
4057;SDS011;2044;48.692;9.020;2022-08-16T14:58:56;10.60;;;10.00;;
4057;SDS011;2044;48.692;9.020;2022-08-16T15:01:23;10.40;;;9.80;;
4057;SDS011;2044;48.692;9.020;2022-08-16T15:03:50;10.57;;;10.00;;
4057;SDS011;2044;48.692;9.020;2022-08-16T15:06:16;10.50;;;9.90;;
4057;SDS011;2044;48.692;9.020;2022-08-16T15:08:45;10.30;;;9.70;;